sensor_id;sensor_type;location;lat;lon;timestamp;temperature;humidity
10057;DHT22;5068;51.286;7.518;2023-07-09T00:00:52;19.60;52.90
10057;DHT22;5068;51.286;7.518;2023-07-09T00:02:27;19.60;52.80
10057;DHT22;5068;51.286;7.518;2023-07-09T00:04:00;19.60;53.00
10057;DHT22;5068;51.286;7.518;2023-07-09T00:05:33;19.50;53.00
10057;DHT22;5068;51.286;7.518;2023-07-09T00:07:15;19.40;52.90
10057;DHT22;5068;51.286;7.518;2023-07-09T00:08:51;19.40;53.60
10057;DHT22;5068;51.286;7.518;2023-07-09T00:10:24;19.40;53.20
10057;DHT22;5068;51.286;7.518;2023-07-09T00:11:58;19.30;53.10
10057;DHT22;5068;51.286;7.518;2023-07-09T00:13:30;19.20;53.30
10057;DHT22;5068;51.286;7.518;2023-07-09T00:15:04;19.20;53.40
10057;DHT22;5068;51.286;7.518;2023-07-09T00:16:42;19.30;53.80
10057;DHT22;5068;51.286;7.518;2023-07-09T00:18:19;19.20;53.70
10057;DHT22;5068;51.286;7.518;2023-07-09T00:19:52;19.20;54.20
10057;DHT22;5068;51.286;7.518;2023-07-09T00:21:26;19.20;53.80
10057;DHT22;5068;51.286;7.518;2023-07-09T00:23:02;19.10;53.70
10057;DHT22;5068;51.286;7.518;2023-07-09T00:24:36;19.10;53.90
10057;DHT22;5068;51.286;7.518;2023-07-09T00:26:09;19.00;53.90
10057;DHT22;5068;51.286;7.518;2023-07-09T00:27:45;19.00;54.00
10057;DHT22;5068;51.286;7.518;2023-07-09T00:29:22;19.00;54.00
10057;DHT22;5068;51.286;7.518;2023-07-09T00:30:55;18.90;53.90
10057;DHT22;5068;51.286;7.518;2023-07-09T00:32:28;18.90;54.70
10057;DHT22;5068;51.286;7.518;2023-07-09T00:34:03;18.90;54.10
10057;DHT22;5068;51.286;7.518;2023-07-09T00:35:36;18.90;54.20
10057;DHT22;5068;51.286;7.518;2023-07-09T00:37:12;18.80;54.10
10057;DHT22;5068;51.286;7.518;2023-07-09T00:38:45;18.80;54.10
10057;DHT22;5068;51.286;7.518;2023-07-09T00:40:22;18.80;54.20
10057;DHT22;5068;51.286;7.518;2023-07-09T00:41:55;18.70;54.50
10057;DHT22;5068;51.286;7.518;2023-07-09T00:43:31;18.60;54.30
10057;DHT22;5068;51.286;7.518;2023-07-09T00:45:18;18.60;54.60
10057;DHT22;5068;51.286;7.518;2023-07-09T00:47:14;18.60;55.80
10057;DHT22;5068;51.286;7.518;2023-07-09T00:48:55;18.60;55.30
10057;DHT22;5068;51.286;7.518;2023-07-09T00:50:36;18.50;54.90
10057;DHT22;5068;51.286;7.518;2023-07-09T00:52:22;18.50;55.00
10057;DHT22;5068;51.286;7.518;2023-07-09T00:54:06;18.40;55.10
10057;DHT22;5068;51.286;7.518;2023-07-09T00:55:51;18.40;55.10
10057;DHT22;5068;51.286;7.518;2023-07-09T00:57:29;18.40;55.20
10057;DHT22;5068;51.286;7.518;2023-07-09T00:59:06;18.30;55.00
10057;DHT22;5068;51.286;7.518;2023-07-09T01:00:45;18.30;55.40
10057;DHT22;5068;51.286;7.518;2023-07-09T01:02:21;18.30;55.50
10057;DHT22;5068;51.286;7.518;2023-07-09T01:03:58;18.20;55.30
10057;DHT22;5068;51.286;7.518;2023-07-09T01:05:38;18.20;55.50
10057;DHT22;5068;51.286;7.518;2023-07-09T01:07:11;18.10;55.40
10057;DHT22;5068;51.286;7.518;2023-07-09T01:08:45;18.10;55.30
10057;DHT22;5068;51.286;7.518;2023-07-09T01:10:25;18.10;55.40
10057;DHT22;5068;51.286;7.518;2023-07-09T01:11:58;18.20;55.60
10057;DHT22;5068;51.286;7.518;2023-07-09T01:13:33;18.10;55.50
10057;DHT22;5068;51.286;7.518;2023-07-09T01:15:08;18.00;55.40
10057;DHT22;5068;51.286;7.518;2023-07-09T01:16:46;18.00;55.80
10057;DHT22;5068;51.286;7.518;2023-07-09T01:18:21;18.00;55.90
10057;DHT22;5068;51.286;7.518;2023-07-09T01:19:56;18.00;55.90
10057;DHT22;5068;51.286;7.518;2023-07-09T01:21:30;17.90;55.60
10057;DHT22;5068;51.286;7.518;2023-07-09T01:23:04;17.90;55.70
10057;DHT22;5068;51.286;7.518;2023-07-09T01:24:50;17.90;55.60
10057;DHT22;5068;51.286;7.518;2023-07-09T01:26:27;17.90;56.40
10057;DHT22;5068;51.286;7.518;2023-07-09T01:28:01;17.80;55.90
10057;DHT22;5068;51.286;7.518;2023-07-09T01:29:34;17.80;55.80
10057;DHT22;5068;51.286;7.518;2023-07-09T01:31:09;17.80;56.30
10057;DHT22;5068;51.286;7.518;2023-07-09T01:32:43;17.70;56.20
10057;DHT22;5068;51.286;7.518;2023-07-09T01:34:18;17.70;56.10
10057;DHT22;5068;51.286;7.518;2023-07-09T01:35:52;17.70;56.00
10057;DHT22;5068;51.286;7.518;2023-07-09T01:37:36;17.60;55.60
10057;DHT22;5068;51.286;7.518;2023-07-09T01:39:10;17.60;56.10
10057;DHT22;5068;51.286;7.518;2023-07-09T01:40:44;17.60;56.20
10057;DHT22;5068;51.286;7.518;2023-07-09T01:42:21;17.60;56.20
10057;DHT22;5068;51.286;7.518;2023-07-09T01:43:55;17.60;56.60
10057;DHT22;5068;51.286;7.518;2023-07-09T01:45:29;17.50;56.30
10057;DHT22;5068;51.286;7.518;2023-07-09T01:47:05;17.50;56.10
10057;DHT22;5068;51.286;7.518;2023-07-09T01:48:39;17.50;56.30
10057;DHT22;5068;51.286;7.518;2023-07-09T01:50:16;17.50;56.60
10057;DHT22;5068;51.286;7.518;2023-07-09T01:51:50;17.40;56.60
10057;DHT22;5068;51.286;7.518;2023-07-09T01:53:25;17.40;56.40
10057;DHT22;5068;51.286;7.518;2023-07-09T01:54:59;17.40;56.80
10057;DHT22;5068;51.286;7.518;2023-07-09T01:56:34;17.40;56.60
10057;DHT22;5068;51.286;7.518;2023-07-09T01:58:10;17.30;56.60
10057;DHT22;5068;51.286;7.518;2023-07-09T01:59:43;17.30;56.80
10057;DHT22;5068;51.286;7.518;2023-07-09T02:01:16;17.40;56.40
10057;DHT22;5068;51.286;7.518;2023-07-09T02:02:51;17.20;56.40
10057;DHT22;5068;51.286;7.518;2023-07-09T02:04:26;17.30;56.70
10057;DHT22;5068;51.286;7.518;2023-07-09T02:05:59;17.20;56.70
10057;DHT22;5068;51.286;7.518;2023-07-09T02:07:35;17.20;56.80
10057;DHT22;5068;51.286;7.518;2023-07-09T02:09:10;17.20;56.90
10057;DHT22;5068;51.286;7.518;2023-07-09T02:10:43;17.10;57.20
10057;DHT22;5068;51.286;7.518;2023-07-09T02:12:18;17.10;57.30
10057;DHT22;5068;51.286;7.518;2023-07-09T02:13:50;17.10;57.30
10057;DHT22;5068;51.286;7.518;2023-07-09T02:15:24;17.10;57.20
10057;DHT22;5068;51.286;7.518;2023-07-09T02:16:56;17.00;57.10
10057;DHT22;5068;51.286;7.518;2023-07-09T02:18:30;17.00;57.00
10057;DHT22;5068;51.286;7.518;2023-07-09T02:20:06;17.00;57.10
10057;DHT22;5068;51.286;7.518;2023-07-09T02:21:39;17.00;57.50
10057;DHT22;5068;51.286;7.518;2023-07-09T02:23:13;17.00;57.30
10057;DHT22;5068;51.286;7.518;2023-07-09T02:24:48;17.00;57.30
10057;DHT22;5068;51.286;7.518;2023-07-09T02:26:20;16.90;57.50
10057;DHT22;5068;51.286;7.518;2023-07-09T02:27:53;16.90;57.40
10057;DHT22;5068;51.286;7.518;2023-07-09T02:29:27;16.90;57.70
10057;DHT22;5068;51.286;7.518;2023-07-09T02:31:01;16.90;57.90
10057;DHT22;5068;51.286;7.518;2023-07-09T02:32:33;17.00;57.70
10057;DHT22;5068;51.286;7.518;2023-07-09T02:34:07;16.90;57.90
10057;DHT22;5068;51.286;7.518;2023-07-09T02:35:39;16.90;57.60
10057;DHT22;5068;51.286;7.518;2023-07-09T02:37:13;16.80;57.70
10057;DHT22;5068;51.286;7.518;2023-07-09T02:38:47;16.80;57.30
10057;DHT22;5068;51.286;7.518;2023-07-09T02:40:22;16.90;57.80
10057;DHT22;5068;51.286;7.518;2023-07-09T02:41:55;16.70;57.70
10057;DHT22;5068;51.286;7.518;2023-07-09T02:43:27;16.70;58.00
10057;DHT22;5068;51.286;7.518;2023-07-09T02:45:02;16.70;58.10
10057;DHT22;5068;51.286;7.518;2023-07-09T02:46:36;16.80;58.50
10057;DHT22;5068;51.286;7.518;2023-07-09T02:48:10;16.70;58.30
10057;DHT22;5068;51.286;7.518;2023-07-09T02:49:44;16.60;58.10
10057;DHT22;5068;51.286;7.518;2023-07-09T02:51:17;16.60;58.30
10057;DHT22;5068;51.286;7.518;2023-07-09T02:52:50;16.70;58.30
10057;DHT22;5068;51.286;7.518;2023-07-09T02:54:22;16.70;58.50
10057;DHT22;5068;51.286;7.518;2023-07-09T02:55:57;16.60;59.10
10057;DHT22;5068;51.286;7.518;2023-07-09T02:57:29;16.50;58.40
10057;DHT22;5068;51.286;7.518;2023-07-09T02:59:03;16.50;58.40
10057;DHT22;5068;51.286;7.518;2023-07-09T03:00:36;16.50;58.60
10057;DHT22;5068;51.286;7.518;2023-07-09T03:02:10;16.50;58.50
10057;DHT22;5068;51.286;7.518;2023-07-09T03:03:43;16.50;58.60
10057;DHT22;5068;51.286;7.518;2023-07-09T03:05:16;16.50;58.90
10057;DHT22;5068;51.286;7.518;2023-07-09T03:06:50;16.50;58.70
10057;DHT22;5068;51.286;7.518;2023-07-09T03:08:22;16.40;58.80
10057;DHT22;5068;51.286;7.518;2023-07-09T03:09:57;16.40;58.70
10057;DHT22;5068;51.286;7.518;2023-07-09T03:11:31;16.40;58.90
10057;DHT22;5068;51.286;7.518;2023-07-09T03:13:06;16.40;59.20
10057;DHT22;5068;51.286;7.518;2023-07-09T03:14:39;16.40;58.90
10057;DHT22;5068;51.286;7.518;2023-07-09T03:16:12;16.40;58.90
10057;DHT22;5068;51.286;7.518;2023-07-09T03:17:45;16.40;59.00
10057;DHT22;5068;51.286;7.518;2023-07-09T03:19:19;16.40;58.80
10057;DHT22;5068;51.286;7.518;2023-07-09T03:20:52;16.40;59.00
10057;DHT22;5068;51.286;7.518;2023-07-09T03:22:25;16.30;59.00
10057;DHT22;5068;51.286;7.518;2023-07-09T03:23:58;16.40;58.90
10057;DHT22;5068;51.286;7.518;2023-07-09T03:25:31;16.30;59.30
10057;DHT22;5068;51.286;7.518;2023-07-09T03:27:06;16.30;59.10
10057;DHT22;5068;51.286;7.518;2023-07-09T03:28:39;16.30;59.60
10057;DHT22;5068;51.286;7.518;2023-07-09T03:30:12;16.30;59.50
10057;DHT22;5068;51.286;7.518;2023-07-09T03:31:46;16.30;59.40
10057;DHT22;5068;51.286;7.518;2023-07-09T03:33:18;16.30;59.40
10057;DHT22;5068;51.286;7.518;2023-07-09T03:34:52;16.30;59.50
10057;DHT22;5068;51.286;7.518;2023-07-09T03:36:25;16.30;59.70
10057;DHT22;5068;51.286;7.518;2023-07-09T03:37:58;16.30;59.70
10057;DHT22;5068;51.286;7.518;2023-07-09T03:39:30;16.20;59.60
10057;DHT22;5068;51.286;7.518;2023-07-09T03:41:04;16.20;59.60
10057;DHT22;5068;51.286;7.518;2023-07-09T03:42:38;16.30;59.70
10057;DHT22;5068;51.286;7.518;2023-07-09T03:44:11;16.20;59.80
10057;DHT22;5068;51.286;7.518;2023-07-09T03:45:45;16.20;59.70
10057;DHT22;5068;51.286;7.518;2023-07-09T03:47:19;16.20;60.00
10057;DHT22;5068;51.286;7.518;2023-07-09T03:48:52;16.20;59.60
10057;DHT22;5068;51.286;7.518;2023-07-09T03:50:25;16.20;59.90
10057;DHT22;5068;51.286;7.518;2023-07-09T03:51:58;16.20;60.00
10057;DHT22;5068;51.286;7.518;2023-07-09T03:53:32;16.20;60.30
10057;DHT22;5068;51.286;7.518;2023-07-09T03:55:05;16.20;60.30
10057;DHT22;5068;51.286;7.518;2023-07-09T03:56:39;16.20;60.40
10057;DHT22;5068;51.286;7.518;2023-07-09T03:58:13;16.20;60.00
10057;DHT22;5068;51.286;7.518;2023-07-09T03:59:46;16.30;60.70
10057;DHT22;5068;51.286;7.518;2023-07-09T04:01:19;16.20;60.20
10057;DHT22;5068;51.286;7.518;2023-07-09T04:02:53;16.20;60.30
10057;DHT22;5068;51.286;7.518;2023-07-09T04:04:28;16.20;60.30
10057;DHT22;5068;51.286;7.518;2023-07-09T04:06:01;16.20;60.40
10057;DHT22;5068;51.286;7.518;2023-07-09T04:07:34;16.30;60.50
10057;DHT22;5068;51.286;7.518;2023-07-09T04:09:08;16.20;60.70
10057;DHT22;5068;51.286;7.518;2023-07-09T04:10:40;16.20;60.40
10057;DHT22;5068;51.286;7.518;2023-07-09T04:12:14;16.30;60.60
10057;DHT22;5068;51.286;7.518;2023-07-09T04:13:47;16.30;60.70
10057;DHT22;5068;51.286;7.518;2023-07-09T04:15:21;16.20;60.30
10057;DHT22;5068;51.286;7.518;2023-07-09T04:16:53;16.20;60.50
10057;DHT22;5068;51.286;7.518;2023-07-09T04:18:27;16.30;60.50
10057;DHT22;5068;51.286;7.518;2023-07-09T04:19:59;16.20;60.60
10057;DHT22;5068;51.286;7.518;2023-07-09T04:21:33;16.20;60.70
10057;DHT22;5068;51.286;7.518;2023-07-09T04:23:11;16.20;60.60
10057;DHT22;5068;51.286;7.518;2023-07-09T04:24:45;16.20;60.90
10057;DHT22;5068;51.286;7.518;2023-07-09T04:26:18;16.30;60.90
10057;DHT22;5068;51.286;7.518;2023-07-09T04:27:51;16.20;60.60
10057;DHT22;5068;51.286;7.518;2023-07-09T04:29:25;16.20;60.30
10057;DHT22;5068;51.286;7.518;2023-07-09T04:30:58;16.20;60.60
10057;DHT22;5068;51.286;7.518;2023-07-09T04:32:32;16.20;61.30
10057;DHT22;5068;51.286;7.518;2023-07-09T04:34:05;16.20;60.60
10057;DHT22;5068;51.286;7.518;2023-07-09T04:35:38;16.20;60.70
10057;DHT22;5068;51.286;7.518;2023-07-09T04:37:13;16.20;61.10
10057;DHT22;5068;51.286;7.518;2023-07-09T04:38:45;16.20;61.30
10057;DHT22;5068;51.286;7.518;2023-07-09T04:40:20;16.20;61.10
10057;DHT22;5068;51.286;7.518;2023-07-09T04:41:52;16.20;61.50
10057;DHT22;5068;51.286;7.518;2023-07-09T04:43:26;16.20;61.40
10057;DHT22;5068;51.286;7.518;2023-07-09T04:45:01;16.20;61.40
10057;DHT22;5068;51.286;7.518;2023-07-09T04:46:33;16.20;61.80
10057;DHT22;5068;51.286;7.518;2023-07-09T04:48:07;16.20;61.50
10057;DHT22;5068;51.286;7.518;2023-07-09T04:49:41;16.20;61.70
10057;DHT22;5068;51.286;7.518;2023-07-09T04:51:13;16.20;61.80
10057;DHT22;5068;51.286;7.518;2023-07-09T04:52:47;16.20;62.00
10057;DHT22;5068;51.286;7.518;2023-07-09T04:54:20;16.20;61.60
10057;DHT22;5068;51.286;7.518;2023-07-09T04:55:54;16.20;61.80
10057;DHT22;5068;51.286;7.518;2023-07-09T04:57:28;16.20;62.10
10057;DHT22;5068;51.286;7.518;2023-07-09T04:59:00;16.20;62.00
10057;DHT22;5068;51.286;7.518;2023-07-09T05:00:35;16.30;62.10
10057;DHT22;5068;51.286;7.518;2023-07-09T05:02:10;16.30;62.20
10057;DHT22;5068;51.286;7.518;2023-07-09T05:03:43;16.40;62.90
10057;DHT22;5068;51.286;7.518;2023-07-09T05:05:16;16.30;62.50
10057;DHT22;5068;51.286;7.518;2023-07-09T05:06:50;16.40;62.80
10057;DHT22;5068;51.286;7.518;2023-07-09T05:08:22;16.40;62.60
10057;DHT22;5068;51.286;7.518;2023-07-09T05:09:56;16.60;63.20
10057;DHT22;5068;51.286;7.518;2023-07-09T05:13:05;16.50;63.40
10057;DHT22;5068;51.286;7.518;2023-07-09T05:14:39;16.50;63.00
10057;DHT22;5068;51.286;7.518;2023-07-09T05:16:14;16.60;63.40
10057;DHT22;5068;51.286;7.518;2023-07-09T05:17:51;16.60;63.20
10057;DHT22;5068;51.286;7.518;2023-07-09T05:19:24;16.70;63.40
10057;DHT22;5068;51.286;7.518;2023-07-09T05:20:57;16.80;63.30
10057;DHT22;5068;51.286;7.518;2023-07-09T05:22:29;16.70;63.10
10057;DHT22;5068;51.286;7.518;2023-07-09T05:24:04;16.80;63.40
10057;DHT22;5068;51.286;7.518;2023-07-09T05:25:37;16.80;63.70
10057;DHT22;5068;51.286;7.518;2023-07-09T05:27:22;16.90;63.70
10057;DHT22;5068;51.286;7.518;2023-07-09T05:28:55;16.90;64.10
10057;DHT22;5068;51.286;7.518;2023-07-09T05:30:36;16.90;63.70
10057;DHT22;5068;51.286;7.518;2023-07-09T05:32:10;17.00;63.90
10057;DHT22;5068;51.286;7.518;2023-07-09T05:33:43;17.00;63.20
10057;DHT22;5068;51.286;7.518;2023-07-09T05:35:26;17.10;63.60
10057;DHT22;5068;51.286;7.518;2023-07-09T05:37:00;17.20;64.30
10057;DHT22;5068;51.286;7.518;2023-07-09T05:38:33;17.20;63.30
10057;DHT22;5068;51.286;7.518;2023-07-09T05:40:08;17.20;63.40
10057;DHT22;5068;51.286;7.518;2023-07-09T05:41:42;17.30;63.90
10057;DHT22;5068;51.286;7.518;2023-07-09T05:43:15;17.30;63.60
10057;DHT22;5068;51.286;7.518;2023-07-09T05:44:48;17.40;63.70
10057;DHT22;5068;51.286;7.518;2023-07-09T05:46:22;17.40;63.60
10057;DHT22;5068;51.286;7.518;2023-07-09T05:48:02;17.40;63.80
10057;DHT22;5068;51.286;7.518;2023-07-09T05:50:01;17.60;63.90
10057;DHT22;5068;51.286;7.518;2023-07-09T05:51:35;17.60;64.00
10057;DHT22;5068;51.286;7.518;2023-07-09T05:53:07;17.70;63.30
10057;DHT22;5068;51.286;7.518;2023-07-09T05:54:41;17.80;63.50
10057;DHT22;5068;51.286;7.518;2023-07-09T05:56:15;17.80;64.40
10057;DHT22;5068;51.286;7.518;2023-07-09T05:57:47;17.80;63.50
10057;DHT22;5068;51.286;7.518;2023-07-09T05:59:20;18.00;63.50
10057;DHT22;5068;51.286;7.518;2023-07-09T06:00:53;18.00;63.50
10057;DHT22;5068;51.286;7.518;2023-07-09T06:02:29;18.00;63.40
10057;DHT22;5068;51.286;7.518;2023-07-09T06:04:04;18.10;62.90
10057;DHT22;5068;51.286;7.518;2023-07-09T06:05:38;18.10;63.10
10057;DHT22;5068;51.286;7.518;2023-07-09T06:07:11;18.30;63.20
10057;DHT22;5068;51.286;7.518;2023-07-09T06:08:45;18.20;63.50
10057;DHT22;5068;51.286;7.518;2023-07-09T06:10:19;18.30;63.10
10057;DHT22;5068;51.286;7.518;2023-07-09T06:11:53;18.40;62.90
10057;DHT22;5068;51.286;7.518;2023-07-09T06:13:28;18.40;62.70
10057;DHT22;5068;51.286;7.518;2023-07-09T06:15:03;18.50;62.90
10057;DHT22;5068;51.286;7.518;2023-07-09T06:16:37;18.60;62.90
10057;DHT22;5068;51.286;7.518;2023-07-09T06:18:10;18.70;62.60
10057;DHT22;5068;51.286;7.518;2023-07-09T06:19:45;18.70;62.50
10057;DHT22;5068;51.286;7.518;2023-07-09T06:21:18;18.80;63.00
10057;DHT22;5068;51.286;7.518;2023-07-09T06:22:52;18.80;62.80
10057;DHT22;5068;51.286;7.518;2023-07-09T06:24:24;19.00;62.80
10057;DHT22;5068;51.286;7.518;2023-07-09T06:25:58;19.00;62.70
10057;DHT22;5068;51.286;7.518;2023-07-09T06:27:31;19.10;63.00
10057;DHT22;5068;51.286;7.518;2023-07-09T06:29:04;19.20;62.70
10057;DHT22;5068;51.286;7.518;2023-07-09T06:30:38;19.20;62.70
10057;DHT22;5068;51.286;7.518;2023-07-09T06:32:11;19.30;62.40
10057;DHT22;5068;51.286;7.518;2023-07-09T06:33:45;19.40;62.30
10057;DHT22;5068;51.286;7.518;2023-07-09T06:35:18;19.40;62.00
10057;DHT22;5068;51.286;7.518;2023-07-09T06:36:51;19.50;62.10
10057;DHT22;5068;51.286;7.518;2023-07-09T06:38:25;19.60;62.00
10057;DHT22;5068;51.286;7.518;2023-07-09T06:39:57;19.80;62.00
10057;DHT22;5068;51.286;7.518;2023-07-09T06:41:31;19.80;61.80
10057;DHT22;5068;51.286;7.518;2023-07-09T06:43:13;19.80;61.60
10057;DHT22;5068;51.286;7.518;2023-07-09T06:44:47;19.90;61.70
10057;DHT22;5068;51.286;7.518;2023-07-09T06:46:21;20.00;61.30
10057;DHT22;5068;51.286;7.518;2023-07-09T06:47:54;20.10;61.20
10057;DHT22;5068;51.286;7.518;2023-07-09T06:49:27;20.10;61.20
10057;DHT22;5068;51.286;7.518;2023-07-09T06:51:02;20.20;61.00
10057;DHT22;5068;51.286;7.518;2023-07-09T06:52:36;20.30;60.90
10057;DHT22;5068;51.286;7.518;2023-07-09T06:54:08;20.40;61.00
10057;DHT22;5068;51.286;7.518;2023-07-09T06:55:42;20.50;61.00
10057;DHT22;5068;51.286;7.518;2023-07-09T06:57:16;20.50;60.70
10057;DHT22;5068;51.286;7.518;2023-07-09T06:58:49;20.60;60.60
10057;DHT22;5068;51.286;7.518;2023-07-09T07:00:22;20.70;60.50
10057;DHT22;5068;51.286;7.518;2023-07-09T07:01:55;20.80;60.50
10057;DHT22;5068;51.286;7.518;2023-07-09T07:03:28;20.90;60.30
10057;DHT22;5068;51.286;7.518;2023-07-09T07:05:01;21.00;60.20
10057;DHT22;5068;51.286;7.518;2023-07-09T07:06:35;21.00;60.10
10057;DHT22;5068;51.286;7.518;2023-07-09T07:08:09;21.10;59.90
10057;DHT22;5068;51.286;7.518;2023-07-09T07:09:42;21.20;59.90
10057;DHT22;5068;51.286;7.518;2023-07-09T07:11:15;21.30;59.90
10057;DHT22;5068;51.286;7.518;2023-07-09T07:12:48;21.40;60.20
10057;DHT22;5068;51.286;7.518;2023-07-09T07:14:21;21.50;60.00
10057;DHT22;5068;51.286;7.518;2023-07-09T07:15:54;21.60;60.20
10057;DHT22;5068;51.286;7.518;2023-07-09T07:17:27;21.70;59.90
10057;DHT22;5068;51.286;7.518;2023-07-09T07:19:00;21.80;59.80
10057;DHT22;5068;51.286;7.518;2023-07-09T07:20:34;21.80;59.80
10057;DHT22;5068;51.286;7.518;2023-07-09T07:22:08;22.00;59.90
10057;DHT22;5068;51.286;7.518;2023-07-09T07:23:41;22.00;59.60
10057;DHT22;5068;51.286;7.518;2023-07-09T07:25:14;22.10;60.00
10057;DHT22;5068;51.286;7.518;2023-07-09T07:26:47;22.20;59.70
10057;DHT22;5068;51.286;7.518;2023-07-09T07:28:21;22.30;59.60
10057;DHT22;5068;51.286;7.518;2023-07-09T07:29:54;22.40;59.60
10057;DHT22;5068;51.286;7.518;2023-07-09T07:31:27;22.50;59.40
10057;DHT22;5068;51.286;7.518;2023-07-09T07:33:00;22.60;59.60
10057;DHT22;5068;51.286;7.518;2023-07-09T07:34:33;22.60;59.50
10057;DHT22;5068;51.286;7.518;2023-07-09T07:36:07;22.70;59.40
10057;DHT22;5068;51.286;7.518;2023-07-09T07:37:44;22.90;58.60
10057;DHT22;5068;51.286;7.518;2023-07-09T07:39:17;22.90;58.70
10057;DHT22;5068;51.286;7.518;2023-07-09T07:40:50;23.00;58.50
10057;DHT22;5068;51.286;7.518;2023-07-09T07:42:23;23.10;57.80
10057;DHT22;5068;51.286;7.518;2023-07-09T07:43:56;23.20;56.80
10057;DHT22;5068;51.286;7.518;2023-07-09T07:45:29;23.30;56.80
10057;DHT22;5068;51.286;7.518;2023-07-09T07:47:03;23.40;57.10
10057;DHT22;5068;51.286;7.518;2023-07-09T07:48:36;23.50;57.20
10057;DHT22;5068;51.286;7.518;2023-07-09T07:50:09;23.60;57.10
10057;DHT22;5068;51.286;7.518;2023-07-09T07:51:42;23.70;56.50
10057;DHT22;5068;51.286;7.518;2023-07-09T07:53:17;23.80;55.70
10057;DHT22;5068;51.286;7.518;2023-07-09T07:54:51;23.90;55.00
10057;DHT22;5068;51.286;7.518;2023-07-09T07:56:24;24.00;54.60
10057;DHT22;5068;51.286;7.518;2023-07-09T07:57:57;24.10;54.40
10057;DHT22;5068;51.286;7.518;2023-07-09T07:59:31;24.20;53.90
10057;DHT22;5068;51.286;7.518;2023-07-09T08:01:06;24.30;54.40
10057;DHT22;5068;51.286;7.518;2023-07-09T08:02:40;24.50;54.10
10057;DHT22;5068;51.286;7.518;2023-07-09T08:04:13;24.60;53.50
10057;DHT22;5068;51.286;7.518;2023-07-09T08:05:48;24.70;53.10
10057;DHT22;5068;51.286;7.518;2023-07-09T08:07:22;24.80;52.40
10057;DHT22;5068;51.286;7.518;2023-07-09T08:08:57;24.90;52.40
10057;DHT22;5068;51.286;7.518;2023-07-09T08:10:30;25.00;52.20
10057;DHT22;5068;51.286;7.518;2023-07-09T08:12:04;25.10;52.10
10057;DHT22;5068;51.286;7.518;2023-07-09T08:13:46;25.20;52.20
10057;DHT22;5068;51.286;7.518;2023-07-09T08:15:19;25.30;51.80
10057;DHT22;5068;51.286;7.518;2023-07-09T08:16:51;25.50;51.40
10057;DHT22;5068;51.286;7.518;2023-07-09T08:18:25;25.60;50.80
10057;DHT22;5068;51.286;7.518;2023-07-09T08:19:57;25.70;50.20
10057;DHT22;5068;51.286;7.518;2023-07-09T08:21:31;25.80;50.10
10057;DHT22;5068;51.286;7.518;2023-07-09T08:23:04;25.90;50.00
10057;DHT22;5068;51.286;7.518;2023-07-09T08:24:38;26.00;50.10
10057;DHT22;5068;51.286;7.518;2023-07-09T08:26:11;26.10;50.20
10057;DHT22;5068;51.286;7.518;2023-07-09T08:27:45;26.20;49.60
10057;DHT22;5068;51.286;7.518;2023-07-09T08:29:18;26.30;49.60
10057;DHT22;5068;51.286;7.518;2023-07-09T08:30:52;26.40;49.50
10057;DHT22;5068;51.286;7.518;2023-07-09T08:32:25;26.60;49.40
10057;DHT22;5068;51.286;7.518;2023-07-09T08:34:01;26.70;48.90
10057;DHT22;5068;51.286;7.518;2023-07-09T08:35:34;26.80;48.30
10057;DHT22;5068;51.286;7.518;2023-07-09T08:37:08;26.90;47.70
10057;DHT22;5068;51.286;7.518;2023-07-09T08:38:42;27.00;48.10
10057;DHT22;5068;51.286;7.518;2023-07-09T08:40:17;27.10;47.70
10057;DHT22;5068;51.286;7.518;2023-07-09T08:41:55;27.20;47.50
10057;DHT22;5068;51.286;7.518;2023-07-09T08:43:39;27.30;46.70
10057;DHT22;5068;51.286;7.518;2023-07-09T08:45:40;27.40;46.00
10057;DHT22;5068;51.286;7.518;2023-07-09T08:47:28;27.50;46.10
10057;DHT22;5068;51.286;7.518;2023-07-09T08:49:14;27.60;45.50
10057;DHT22;5068;51.286;7.518;2023-07-09T08:50:55;27.80;45.10
10057;DHT22;5068;51.286;7.518;2023-07-09T08:52:35;27.90;45.30
10057;DHT22;5068;51.286;7.518;2023-07-09T08:54:17;28.00;45.10
10057;DHT22;5068;51.286;7.518;2023-07-09T08:56:03;28.00;44.90
10057;DHT22;5068;51.286;7.518;2023-07-09T08:57:43;28.30;44.10
10057;DHT22;5068;51.286;7.518;2023-07-09T08:59:24;28.30;44.20
10057;DHT22;5068;51.286;7.518;2023-07-09T09:01:05;28.40;43.60
10057;DHT22;5068;51.286;7.518;2023-07-09T09:02:50;28.50;44.00
10057;DHT22;5068;51.286;7.518;2023-07-09T09:04:28;28.60;43.00
10057;DHT22;5068;51.286;7.518;2023-07-09T09:06:11;28.70;43.00
10057;DHT22;5068;51.286;7.518;2023-07-09T09:07:53;28.80;42.70
10057;DHT22;5068;51.286;7.518;2023-07-09T09:09:38;28.90;42.50
10057;DHT22;5068;51.286;7.518;2023-07-09T09:11:20;29.00;42.60
10057;DHT22;5068;51.286;7.518;2023-07-09T09:13:05;29.10;42.00
10057;DHT22;5068;51.286;7.518;2023-07-09T09:14:43;29.10;41.70
10057;DHT22;5068;51.286;7.518;2023-07-09T09:16:25;29.20;41.70
10057;DHT22;5068;51.286;7.518;2023-07-09T09:18:14;29.30;42.20
10057;DHT22;5068;51.286;7.518;2023-07-09T09:19:55;29.40;41.00
10057;DHT22;5068;51.286;7.518;2023-07-09T09:21:32;29.50;40.90
10057;DHT22;5068;51.286;7.518;2023-07-09T09:23:13;29.60;40.90
10057;DHT22;5068;51.286;7.518;2023-07-09T09:24:58;29.80;41.10
10057;DHT22;5068;51.286;7.518;2023-07-09T09:26:42;29.80;40.00
10057;DHT22;5068;51.286;7.518;2023-07-09T09:28:16;29.80;40.30
10057;DHT22;5068;51.286;7.518;2023-07-09T09:29:49;29.90;40.40
10057;DHT22;5068;51.286;7.518;2023-07-09T09:31:24;30.00;41.30
10057;DHT22;5068;51.286;7.518;2023-07-09T09:33:00;30.20;41.20
10057;DHT22;5068;51.286;7.518;2023-07-09T09:34:36;30.30;41.00
10057;DHT22;5068;51.286;7.518;2023-07-09T09:36:15;30.30;39.60
10057;DHT22;5068;51.286;7.518;2023-07-09T09:37:50;30.40;38.70
10057;DHT22;5068;51.286;7.518;2023-07-09T09:39:26;30.50;39.30
10057;DHT22;5068;51.286;7.518;2023-07-09T09:41:00;30.60;39.10
10057;DHT22;5068;51.286;7.518;2023-07-09T09:42:35;30.60;38.50
10057;DHT22;5068;51.286;7.518;2023-07-09T09:44:17;30.70;38.60
10057;DHT22;5068;51.286;7.518;2023-07-09T09:45:52;30.80;37.40
10057;DHT22;5068;51.286;7.518;2023-07-09T09:47:26;30.80;37.70
10057;DHT22;5068;51.286;7.518;2023-07-09T09:49:02;30.90;37.70
10057;DHT22;5068;51.286;7.518;2023-07-09T09:50:36;31.00;37.20
10057;DHT22;5068;51.286;7.518;2023-07-09T09:52:12;31.00;36.50
10057;DHT22;5068;51.286;7.518;2023-07-09T09:53:49;31.10;36.80
10057;DHT22;5068;51.286;7.518;2023-07-09T09:55:27;31.20;36.70
10057;DHT22;5068;51.286;7.518;2023-07-09T09:57:02;31.30;36.20
10057;DHT22;5068;51.286;7.518;2023-07-09T09:59:03;31.50;36.60
10057;DHT22;5068;51.286;7.518;2023-07-09T10:00:37;31.50;35.40
10057;DHT22;5068;51.286;7.518;2023-07-09T10:02:16;31.60;35.30
10057;DHT22;5068;51.286;7.518;2023-07-09T10:03:54;31.60;34.60
10057;DHT22;5068;51.286;7.518;2023-07-09T10:05:33;31.80;35.60
10057;DHT22;5068;51.286;7.518;2023-07-09T10:07:17;31.80;34.60
10057;DHT22;5068;51.286;7.518;2023-07-09T10:08:59;31.90;35.00
10057;DHT22;5068;51.286;7.518;2023-07-09T10:10:37;31.90;34.80
10057;DHT22;5068;51.286;7.518;2023-07-09T10:12:16;32.00;34.70